createdAt,value
2023-10-19T00:03:34.491Z,22.41
2023-10-19T00:08:26.408Z,22.42
2023-10-19T00:13:20.415Z,22.45
2023-10-19T00:18:21.957Z,22.45
2023-10-19T00:23:25.632Z,22.42
2023-10-19T00:28:18.530Z,22.44
2023-10-19T00:33:21.342Z,22.44
2023-10-19T00:38:39.212Z,22.43
2023-10-19T00:43:35.495Z,22.39
2023-10-19T00:48:28.490Z,22.43
2023-10-19T00:53:20.346Z,22.39
2023-10-19T00:58:18.735Z,22.42
2023-10-19T01:03:18.316Z,22.43
2023-10-19T01:08:27.734Z,22.42
2023-10-19T01:13:28.569Z,22.34
2023-10-19T01:18:21.085Z,22.29
2023-10-19T01:23:27.618Z,22.26
2023-10-19T01:28:19.518Z,22.24
2023-10-19T01:33:16.697Z,22.22
2023-10-19T01:38:09.541Z,22.21
2023-10-19T01:43:01.278Z,22.19
2023-10-19T01:47:53.122Z,22.24
2023-10-19T01:52:45.799Z,22.25
2023-10-19T01:57:37.551Z,22.26
2023-10-19T02:02:30.133Z,22.28
2023-10-19T02:07:24.496Z,22.28
2023-10-19T02:12:18.926Z,22.30
2023-10-19T02:17:11.065Z,22.30
2023-10-19T02:22:12.969Z,22.31
2023-10-19T02:27:07.415Z,22.32
2023-10-19T02:32:05.141Z,22.29
2023-10-19T02:36:56.820Z,22.32
2023-10-19T02:41:50.104Z,22.31
2023-10-19T02:46:43.289Z,22.31
2023-10-19T02:51:35.084Z,22.32
2023-10-19T02:56:28.152Z,22.28
2023-10-19T03:01:23.064Z,22.32
2023-10-19T03:06:14.980Z,22.32
2023-10-19T03:11:08.219Z,22.32
2023-10-19T03:16:08.597Z,22.33
2023-10-19T03:21:02.607Z,22.31
2023-10-19T03:26:14.532Z,22.31
2023-10-19T03:31:06.211Z,22.32
2023-10-19T03:35:57.963Z,22.30
2023-10-19T03:40:53.618Z,22.31
2023-10-19T03:45:53.675Z,22.34
2023-10-19T03:50:49.083Z,22.33
2023-10-19T03:55:44.467Z,22.30
2023-10-19T04:00:36.290Z,22.32
2023-10-19T04:05:29.566Z,22.32
2023-10-19T04:10:31.720Z,22.31
2023-10-19T04:15:23.681Z,22.31
2023-10-19T04:20:17.771Z,22.33
2023-10-19T04:25:13.664Z,22.32
2023-10-19T04:30:06.100Z,22.30
2023-10-19T04:34:59.979Z,22.31
2023-10-19T04:39:51.917Z,22.32
2023-10-19T04:44:43.631Z,22.32
2023-10-19T04:49:35.395Z,22.31
2023-10-19T04:54:27.118Z,22.32
2023-10-19T04:59:18.773Z,22.32
2023-10-19T05:04:10.567Z,22.31
2023-10-19T05:09:04.346Z,22.30
2023-10-19T05:13:56.157Z,22.28
2023-10-19T05:18:47.830Z,22.28
2023-10-19T05:23:39.581Z,22.32
2023-10-19T05:28:32.001Z,22.30
2023-10-19T05:33:24.904Z,22.30
2023-10-19T05:38:17.101Z,22.30
2023-10-19T05:43:08.934Z,22.31
2023-10-19T05:48:01.367Z,22.28
2023-10-19T05:52:54.404Z,22.28
2023-10-19T05:57:48.680Z,22.30
2023-10-19T06:02:47.643Z,22.30
2023-10-19T06:07:39.389Z,22.31
2023-10-19T06:12:35.653Z,22.30
2023-10-19T06:17:28.296Z,22.29
2023-10-19T06:22:20.118Z,22.30
2023-10-19T06:27:11.908Z,22.30
2023-10-19T06:32:03.796Z,22.29
2023-10-19T06:36:55.714Z,22.28
2023-10-19T06:41:48.028Z,22.27
2023-10-19T06:46:40.700Z,22.29
2023-10-19T06:51:34.509Z,22.29
2023-10-19T06:56:27.415Z,22.28
2023-10-19T07:01:19.999Z,22.29
2023-10-19T07:06:15.302Z,22.28
2023-10-19T07:11:07.272Z,22.29
2023-10-19T07:15:59.956Z,22.29
2023-10-19T07:20:54.336Z,22.29
2023-10-19T07:25:49.137Z,22.28
2023-10-19T07:30:42.804Z,22.30
2023-10-19T07:35:40.705Z,22.29
2023-10-19T07:40:33.313Z,22.24
2023-10-19T07:45:26.698Z,22.20
2023-10-19T07:50:18.645Z,22.17
2023-10-19T07:55:11.214Z,22.13
2023-10-19T08:00:06.160Z,22.11
2023-10-19T08:04:58.224Z,22.04
2023-10-19T08:09:49.947Z,22.06
2023-10-19T08:14:43.579Z,22.05
2023-10-19T08:19:35.418Z,22.09
2023-10-19T08:24:30.184Z,22.03
2023-10-19T08:29:22.668Z,22.14
2023-10-19T08:34:14.601Z,22.14
2023-10-19T08:39:07.515Z,22.13
2023-10-19T08:43:59.391Z,22.15
2023-10-19T08:48:51.220Z,22.16
2023-10-19T08:53:45.350Z,22.17
2023-10-19T08:58:37.166Z,22.18
2023-10-19T09:03:30.343Z,22.18
2023-10-19T09:08:23.840Z,22.13
2023-10-19T09:13:19.831Z,22.20
2023-10-19T09:18:23.607Z,22.19
2023-10-19T09:23:15.334Z,22.18
2023-10-19T09:28:07.805Z,22.19
2023-10-19T09:33:01.171Z,22.19
2023-10-19T09:37:55.256Z,22.21
2023-10-19T09:42:51.480Z,22.21
2023-10-19T09:47:51.147Z,22.20
2023-10-19T09:52:43.591Z,22.19
2023-10-19T09:57:50.258Z,22.20
2023-10-19T10:02:47.585Z,22.18
2023-10-19T10:07:42.465Z,22.17
2023-10-19T10:12:36.232Z,22.20
2023-10-19T10:17:28.882Z,22.21
2023-10-19T10:22:22.599Z,22.22
2023-10-19T10:27:20.878Z,22.21
2023-10-19T10:32:13.484Z,22.22
2023-10-19T10:37:09.234Z,22.22
2023-10-19T10:42:04.231Z,22.23
2023-10-19T10:46:56.054Z,22.21
2023-10-19T10:51:47.805Z,22.22
2023-10-19T10:56:42.801Z,22.21
2023-10-19T11:01:35.006Z,22.18
2023-10-19T11:06:26.858Z,22.23
2023-10-19T11:11:18.537Z,22.20
2023-10-19T11:16:10.822Z,22.21
2023-10-19T11:21:13.222Z,22.21
2023-10-19T11:26:06.425Z,22.21
2023-10-19T11:31:15.334Z,22.17
2023-10-19T11:36:07.465Z,22.23
2023-10-19T11:40:59.210Z,22.19
2023-10-19T11:45:51.135Z,22.21
2023-10-19T11:50:43.057Z,22.21
2023-10-19T11:55:34.768Z,22.21
2023-10-19T12:00:35.171Z,22.19
2023-10-19T12:05:27.157Z,22.22
2023-10-19T12:10:21.649Z,22.22
2023-10-19T12:15:16.340Z,22.22
2023-10-19T12:20:08.572Z,22.22
2023-10-19T12:25:00.589Z,22.21
2023-10-19T12:29:55.604Z,22.22
2023-10-19T12:34:47.453Z,22.21
2023-10-19T12:40:00.154Z,22.20
2023-10-19T12:44:52.330Z,22.18
2023-10-19T12:49:46.412Z,22.22
2023-10-19T12:54:39.191Z,22.16
2023-10-19T12:59:31.529Z,22.21
2023-10-19T13:04:25.277Z,22.21
2023-10-19T13:09:23.182Z,22.19
2023-10-19T13:14:15.237Z,22.18
2023-10-19T13:19:17.218Z,22.18
2023-10-19T13:24:10.195Z,22.19
2023-10-19T13:29:02.735Z,22.17
2023-10-19T13:33:55.817Z,22.17
2023-10-19T13:38:47.539Z,22.17
2023-10-19T13:43:43.757Z,22.18
2023-10-19T13:48:36.634Z,22.18
2023-10-19T13:53:28.815Z,22.18
2023-10-19T13:58:20.632Z,22.18
2023-10-19T14:03:15.369Z,22.18
2023-10-19T14:08:08.148Z,22.13
2023-10-19T14:13:00.138Z,22.15
2023-10-19T14:17:52.495Z,22.14
2023-10-19T14:22:47.160Z,22.12
2023-10-19T14:27:49.812Z,22.11
2023-10-19T14:32:43.334Z,22.08
2023-10-19T14:37:35.161Z,22.07
2023-10-19T14:42:26.953Z,22.06
2023-10-19T14:47:18.829Z,22.09
2023-10-19T14:52:11.166Z,22.11
2023-10-19T14:57:02.965Z,22.11
2023-10-19T15:01:56.385Z,22.12
2023-10-19T15:06:50.333Z,22.11
2023-10-19T15:11:42.031Z,22.10
2023-10-19T15:16:33.726Z,22.11
2023-10-19T15:21:25.435Z,22.10
2023-10-19T15:26:19.987Z,22.11
2023-10-19T15:31:12.125Z,22.11
2023-10-19T15:36:04.068Z,22.10
2023-10-19T15:40:55.963Z,22.10
2023-10-19T15:45:50.714Z,22.10
2023-10-19T15:50:42.787Z,22.09
2023-10-19T15:55:34.560Z,22.11
2023-10-19T16:00:26.453Z,22.13
2023-10-19T16:05:19.185Z,22.12
2023-10-19T16:10:11.732Z,22.12
2023-10-19T16:15:03.814Z,22.14
2023-10-19T16:19:55.813Z,22.13
2023-10-19T16:24:47.608Z,22.12
2023-10-19T16:29:40.111Z,22.13
2023-10-19T16:34:32.113Z,22.12
2023-10-19T16:39:24.088Z,22.10
2023-10-19T16:44:17.238Z,22.13
2023-10-19T16:49:09.584Z,22.11
2023-10-19T16:54:01.243Z,22.10
2023-10-19T16:58:53.056Z,22.06
2023-10-19T17:03:46.003Z,22.09
2023-10-19T17:08:38.008Z,22.05
2023-10-19T17:13:30.594Z,22.01
2023-10-19T17:18:22.463Z,22.01
2023-10-19T17:23:14.388Z,21.99
2023-10-19T17:28:07.717Z,21.99
2023-10-19T17:33:10.211Z,21.98
2023-10-19T17:38:04.095Z,21.94
2023-10-19T17:42:55.855Z,21.96
2023-10-19T17:47:48.290Z,21.98
2023-10-19T17:52:40.202Z,21.98
2023-10-19T17:57:36.038Z,22.01
2023-10-19T18:02:28.341Z,22.02
2023-10-19T18:07:21.157Z,21.98
2023-10-19T18:12:13.605Z,22.01
2023-10-19T18:17:10.516Z,21.99
2023-10-19T18:22:02.456Z,22.03
2023-10-19T18:26:54.721Z,22.00
2023-10-19T18:31:46.578Z,22.02
2023-10-19T18:36:46.907Z,22.04
2023-10-19T18:41:42.767Z,22.03
2023-10-19T18:46:37.203Z,22.10
2023-10-19T18:51:29.185Z,22.09
2023-10-19T18:56:20.944Z,22.10
2023-10-19T19:01:12.909Z,22.08
2023-10-19T19:06:05.760Z,22.06
2023-10-19T19:10:58.853Z,22.03
2023-10-19T19:15:51.961Z,22.00
2023-10-19T19:20:44.323Z,21.95
2023-10-19T19:25:36.670Z,21.99
2023-10-19T19:30:28.731Z,21.99
2023-10-19T19:35:20.911Z,21.97
2023-10-19T19:40:15.929Z,21.85
2023-10-19T19:45:08.128Z,21.94
2023-10-19T19:49:59.845Z,21.94
2023-10-19T19:54:54.509Z,21.92
2023-10-19T19:59:46.882Z,21.91
2023-10-19T20:04:39.510Z,21.90
2023-10-19T20:09:32.069Z,21.86
2023-10-19T20:14:24.218Z,21.92
2023-10-19T20:19:17.383Z,21.94
2023-10-19T20:24:09.248Z,21.91
2023-10-19T20:29:02.171Z,21.96
2023-10-19T20:33:53.941Z,21.94
2023-10-19T20:38:45.849Z,21.96
2023-10-19T20:43:43.833Z,21.96
2023-10-19T20:48:35.926Z,21.98
2023-10-19T20:53:27.715Z,21.99
2023-10-19T20:58:23.868Z,21.96
2023-10-19T21:03:16.526Z,21.98
2023-10-19T21:08:08.354Z,21.99
2023-10-19T21:13:01.498Z,21.98
2023-10-19T21:17:53.339Z,21.95
2023-10-19T21:22:47.401Z,21.96
2023-10-19T21:27:40.770Z,22.00
2023-10-19T21:32:34.433Z,21.98
2023-10-19T21:37:27.346Z,21.98
2023-10-19T21:42:19.297Z,21.98
2023-10-19T21:47:12.644Z,22.01
2023-10-19T21:52:04.865Z,22.00
2023-10-19T21:56:56.715Z,22.01
2023-10-19T22:01:48.410Z,21.99
2023-10-19T22:06:40.222Z,22.00
2023-10-19T22:11:35.219Z,22.02
2023-10-19T22:16:27.063Z,22.01
2023-10-19T22:21:18.858Z,22.02
2023-10-19T22:26:12.533Z,22.02
2023-10-19T22:31:04.823Z,22.02
2023-10-19T22:35:56.508Z,21.99
2023-10-19T22:40:48.686Z,22.02
2023-10-19T22:45:40.464Z,22.00
2023-10-19T22:50:34.451Z,21.98
2023-10-19T22:55:26.313Z,22.03
2023-10-19T23:00:18.538Z,22.02
2023-10-19T23:05:12.285Z,22.00
2023-10-19T23:10:07.056Z,22.04
2023-10-19T23:15:00.998Z,22.04
2023-10-19T23:19:57.956Z,22.05
2023-10-19T23:24:52.570Z,22.05
2023-10-19T23:29:46.600Z,22.02
2023-10-19T23:34:38.259Z,22.01
2023-10-19T23:39:34.387Z,22.02
2023-10-19T23:44:30.888Z,22.00
2023-10-19T23:49:22.872Z,22.03
2023-10-19T23:54:14.711Z,22.00
2023-10-19T23:59:07.806Z,22.03
